sensor_id;sensor_type;location;lat;lon;timestamp;P1;durP1;ratioP1;P2;durP2;ratioP2
48268;SDS011;34088;52.232;5.196;2023-07-20T00:01:40;2.78;;;1.80;;
48268;SDS011;34088;52.232;5.196;2023-07-20T00:04:06;2.67;;;1.60;;
48268;SDS011;34088;52.232;5.196;2023-07-20T00:06:31;2.75;;;1.60;;
48268;SDS011;34088;52.232;5.196;2023-07-20T00:11:25;1.58;;;1.30;;
48268;SDS011;34088;52.232;5.196;2023-07-20T00:13:52;2.17;;;1.30;;
48268;SDS011;34088;52.232;5.196;2023-07-20T00:16:17;2.30;;;1.38;;
48268;SDS011;34088;52.232;5.196;2023-07-20T00:32:19;2.37;;;1.20;;
48268;SDS011;34088;52.232;5.196;2023-07-20T00:37:10;1.83;;;1.33;;
48268;SDS011;34088;52.232;5.196;2023-07-20T00:42:00;2.27;;;1.50;;
48268;SDS011;34088;52.232;5.196;2023-07-20T00:46:51;1.87;;;1.40;;
48268;SDS011;34088;52.232;5.196;2023-07-20T00:49:16;1.80;;;1.52;;
48268;SDS011;34088;52.232;5.196;2023-07-20T00:51:46;3.03;;;1.75;;
48268;SDS011;34088;52.232;5.196;2023-07-20T00:54:12;2.60;;;1.98;;
48268;SDS011;34088;52.232;5.196;2023-07-20T00:59:03;2.53;;;1.60;;
48268;SDS011;34088;52.232;5.196;2023-07-20T01:03:55;2.22;;;1.85;;
48268;SDS011;34088;52.232;5.196;2023-07-20T01:12:01;4.22;;;2.28;;
48268;SDS011;34088;52.232;5.196;2023-07-20T01:14:31;3.25;;;2.20;;
48268;SDS011;34088;52.232;5.196;2023-07-20T01:16:57;3.17;;;2.05;;
48268;SDS011;34088;52.232;5.196;2023-07-20T01:21:53;2.58;;;2.25;;
48268;SDS011;34088;52.232;5.196;2023-07-20T01:32:18;3.63;;;2.70;;
48268;SDS011;34088;52.232;5.196;2023-07-20T01:34:48;3.55;;;2.65;;
48268;SDS011;34088;52.232;5.196;2023-07-20T01:37:17;3.25;;;2.60;;
48268;SDS011;34088;52.232;5.196;2023-07-20T01:39:45;3.72;;;2.80;;
48268;SDS011;34088;52.232;5.196;2023-07-20T01:44:37;4.47;;;3.00;;
48268;SDS011;34088;52.232;5.196;2023-07-20T01:47:02;4.70;;;3.10;;
48268;SDS011;34088;52.232;5.196;2023-07-20T01:51:53;4.43;;;2.90;;
48268;SDS011;34088;52.232;5.196;2023-07-20T01:56:44;4.43;;;2.80;;
48268;SDS011;34088;52.232;5.196;2023-07-20T02:01:34;3.43;;;2.90;;
48268;SDS011;34088;52.232;5.196;2023-07-20T02:06:25;4.00;;;2.90;;
48268;SDS011;34088;52.232;5.196;2023-07-20T02:11:15;4.80;;;2.97;;
48268;SDS011;34088;52.232;5.196;2023-07-20T02:16:06;4.07;;;3.20;;
48268;SDS011;34088;52.232;5.196;2023-07-20T02:20:56;4.83;;;3.67;;
48268;SDS011;34088;52.232;5.196;2023-07-20T02:23:21;3.75;;;3.30;;
48268;SDS011;34088;52.232;5.196;2023-07-20T02:28:13;4.68;;;3.88;;
48268;SDS011;34088;52.232;5.196;2023-07-20T02:30:39;6.25;;;3.67;;
48268;SDS011;34088;52.232;5.196;2023-07-20T02:35:31;5.88;;;3.65;;
48268;SDS011;34088;52.232;5.196;2023-07-20T02:40:21;5.37;;;3.93;;
48268;SDS011;34088;52.232;5.196;2023-07-20T02:45:13;4.90;;;4.13;;
48268;SDS011;34088;52.232;5.196;2023-07-20T02:47:38;4.20;;;3.75;;
48268;SDS011;34088;52.232;5.196;2023-07-20T02:50:05;4.93;;;3.78;;
48268;SDS011;34088;52.232;5.196;2023-07-20T02:52:33;7.18;;;4.07;;
48268;SDS011;34088;52.232;5.196;2023-07-20T02:57:24;6.63;;;3.78;;
48268;SDS011;34088;52.232;5.196;2023-07-20T03:02:15;8.60;;;4.68;;
48268;SDS011;34088;52.232;5.196;2023-07-20T03:07:06;5.47;;;4.50;;
48268;SDS011;34088;52.232;5.196;2023-07-20T03:09:32;6.25;;;4.28;;
48268;SDS011;34088;52.232;5.196;2023-07-20T03:14:23;5.23;;;4.23;;
48268;SDS011;34088;52.232;5.196;2023-07-20T03:19:14;6.85;;;4.75;;
48268;SDS011;34088;52.232;5.196;2023-07-20T03:21:39;4.78;;;4.22;;
48268;SDS011;34088;52.232;5.196;2023-07-20T03:24:06;7.07;;;4.72;;
48268;SDS011;34088;52.232;5.196;2023-07-20T03:26:33;5.57;;;4.43;;
48268;SDS011;34088;52.232;5.196;2023-07-20T03:31:23;7.63;;;4.37;;
48268;SDS011;34088;52.232;5.196;2023-07-20T03:33:49;7.38;;;4.68;;
48268;SDS011;34088;52.232;5.196;2023-07-20T03:36:14;7.72;;;4.40;;
48268;SDS011;34088;52.232;5.196;2023-07-20T03:41:04;4.30;;;3.90;;
48268;SDS011;34088;52.232;5.196;2023-07-20T03:45:55;5.78;;;4.28;;
48268;SDS011;34088;52.232;5.196;2023-07-20T03:48:22;6.15;;;4.45;;
48268;SDS011;34088;52.232;5.196;2023-07-20T03:50:48;5.55;;;3.95;;
48268;SDS011;34088;52.232;5.196;2023-07-20T03:53:15;5.20;;;4.07;;
48268;SDS011;34088;52.232;5.196;2023-07-20T03:58:07;5.00;;;3.80;;
48268;SDS011;34088;52.232;5.196;2023-07-20T04:00:33;5.05;;;3.95;;
48268;SDS011;34088;52.232;5.196;2023-07-20T04:02:59;5.13;;;3.70;;
48268;SDS011;34088;52.232;5.196;2023-07-20T04:07:50;4.93;;;3.55;;
48268;SDS011;34088;52.232;5.196;2023-07-20T04:12:41;4.78;;;3.10;;
48268;SDS011;34088;52.232;5.196;2023-07-20T04:15:07;3.25;;;2.95;;
48268;SDS011;34088;52.232;5.196;2023-07-20T04:19:58;5.37;;;3.37;;
48268;SDS011;34088;52.232;5.196;2023-07-20T04:24:48;4.77;;;3.60;;
48268;SDS011;34088;52.232;5.196;2023-07-20T04:29:39;4.37;;;3.60;;
48268;SDS011;34088;52.232;5.196;2023-07-20T04:32:04;5.97;;;3.45;;
48268;SDS011;34088;52.232;5.196;2023-07-20T04:34:30;4.45;;;3.30;;
48268;SDS011;34088;52.232;5.196;2023-07-20T04:36:55;5.40;;;3.17;;
48268;SDS011;34088;52.232;5.196;2023-07-20T04:41:45;3.10;;;2.73;;
48268;SDS011;34088;52.232;5.196;2023-07-20T04:46:36;5.37;;;2.80;;
48268;SDS011;34088;52.232;5.196;2023-07-20T04:51:27;4.63;;;2.90;;
48268;SDS011;34088;52.232;5.196;2023-07-20T04:53:55;9.25;;;3.40;;
48268;SDS011;34088;52.232;5.196;2023-07-20T05:01:13;4.93;;;3.10;;
48268;SDS011;34088;52.232;5.196;2023-07-20T05:06:03;3.73;;;2.57;;
48268;SDS011;34088;52.232;5.196;2023-07-20T05:08:29;4.43;;;2.55;;
48268;SDS011;34088;52.232;5.196;2023-07-20T05:13:19;3.27;;;2.20;;
48268;SDS011;34088;52.232;5.196;2023-07-20T05:15:44;4.10;;;2.13;;
48268;SDS011;34088;52.232;5.196;2023-07-20T05:18:10;5.32;;;2.20;;
48268;SDS011;34088;52.232;5.196;2023-07-20T05:23:02;2.60;;;2.00;;
48268;SDS011;34088;52.232;5.196;2023-07-20T05:27:52;4.60;;;2.20;;
48268;SDS011;34088;52.232;5.196;2023-07-20T05:30:20;2.42;;;1.70;;
48268;SDS011;34088;52.232;5.196;2023-07-20T05:35:15;2.65;;;1.98;;
48268;SDS011;34088;52.232;5.196;2023-07-20T05:37:42;3.35;;;1.90;;
48268;SDS011;34088;52.232;5.196;2023-07-20T05:42:33;2.33;;;1.60;;
48268;SDS011;34088;52.232;5.196;2023-07-20T05:44:58;5.80;;;1.63;;
48268;SDS011;34088;52.232;5.196;2023-07-20T05:47:23;2.95;;;1.70;;
48268;SDS011;34088;52.232;5.196;2023-07-20T05:52:14;4.97;;;1.90;;
48268;SDS011;34088;52.232;5.196;2023-07-20T05:54:39;4.30;;;1.60;;
48268;SDS011;34088;52.232;5.196;2023-07-20T05:57:05;2.45;;;1.38;;
48268;SDS011;34088;52.232;5.196;2023-07-20T05:59:30;3.72;;;1.70;;
48268;SDS011;34088;52.232;5.196;2023-07-20T06:04:22;3.90;;;1.88;;
48268;SDS011;34088;52.232;5.196;2023-07-20T06:09:12;5.03;;;1.90;;
48268;SDS011;34088;52.232;5.196;2023-07-20T06:14:03;3.85;;;1.42;;
48268;SDS011;34088;52.232;5.196;2023-07-20T06:18:55;5.18;;;1.23;;
48268;SDS011;34088;52.232;5.196;2023-07-20T06:23:45;2.20;;;1.13;;
48268;SDS011;34088;52.232;5.196;2023-07-20T06:28:36;3.55;;;0.85;;
48268;SDS011;34088;52.232;5.196;2023-07-20T06:31:02;1.70;;;1.00;;
48268;SDS011;34088;52.232;5.196;2023-07-20T06:33:28;2.45;;;1.00;;
48268;SDS011;34088;52.232;5.196;2023-07-20T06:38:19;6.25;;;1.10;;
48268;SDS011;34088;52.232;5.196;2023-07-20T06:43:12;2.58;;;0.93;;
48268;SDS011;34088;52.232;5.196;2023-07-20T06:48:03;1.27;;;0.80;;
48268;SDS011;34088;52.232;5.196;2023-07-20T06:52:54;2.55;;;0.85;;
48268;SDS011;34088;52.232;5.196;2023-07-20T06:55:19;2.25;;;0.75;;
48268;SDS011;34088;52.232;5.196;2023-07-20T07:00:10;2.43;;;0.93;;
48268;SDS011;34088;52.232;5.196;2023-07-20T07:05:01;1.88;;;0.85;;
48268;SDS011;34088;52.232;5.196;2023-07-20T07:07:26;4.00;;;1.08;;
48268;SDS011;34088;52.232;5.196;2023-07-20T07:09:52;1.77;;;0.80;;
48268;SDS011;34088;52.232;5.196;2023-07-20T07:12:17;1.00;;;0.80;;
48268;SDS011;34088;52.232;5.196;2023-07-20T07:14:42;1.42;;;0.70;;
48268;SDS011;34088;52.232;5.196;2023-07-20T07:17:08;2.53;;;0.65;;
48268;SDS011;34088;52.232;5.196;2023-07-20T07:19:33;1.10;;;0.60;;
48268;SDS011;34088;52.232;5.196;2023-07-20T07:21:58;1.58;;;0.73;;
48268;SDS011;34088;52.232;5.196;2023-07-20T07:24:24;1.40;;;0.47;;
48268;SDS011;34088;52.232;5.196;2023-07-20T07:26:49;2.63;;;0.77;;
48268;SDS011;34088;52.232;5.196;2023-07-20T07:31:39;3.73;;;0.60;;
48268;SDS011;34088;52.232;5.196;2023-07-20T07:36:30;1.27;;;0.60;;
48268;SDS011;34088;52.232;5.196;2023-07-20T07:38:56;1.27;;;0.70;;
48268;SDS011;34088;52.232;5.196;2023-07-20T07:41:22;1.40;;;0.70;;
48268;SDS011;34088;52.232;5.196;2023-07-20T07:43:48;0.80;;;0.52;;
48268;SDS011;34088;52.232;5.196;2023-07-20T07:46:13;1.95;;;0.80;;
48268;SDS011;34088;52.232;5.196;2023-07-20T07:48:39;2.47;;;0.70;;
48268;SDS011;34088;52.232;5.196;2023-07-20T07:51:04;1.88;;;0.63;;
48268;SDS011;34088;52.232;5.196;2023-07-20T07:53:30;1.35;;;0.60;;
48268;SDS011;34088;52.232;5.196;2023-07-20T07:55:57;1.75;;;0.50;;
48268;SDS011;34088;52.232;5.196;2023-07-20T07:58:22;2.78;;;0.60;;
48268;SDS011;34088;52.232;5.196;2023-07-20T08:00:48;1.23;;;0.50;;
48268;SDS011;34088;52.232;5.196;2023-07-20T08:03:13;2.03;;;0.88;;
48268;SDS011;34088;52.232;5.196;2023-07-20T08:05:39;1.27;;;0.50;;
48268;SDS011;34088;52.232;5.196;2023-07-20T08:08:04;2.58;;;0.60;;
48268;SDS011;34088;52.232;5.196;2023-07-20T08:10:30;1.80;;;0.57;;
48268;SDS011;34088;52.232;5.196;2023-07-20T08:12:55;1.27;;;0.50;;
48268;SDS011;34088;52.232;5.196;2023-07-20T08:15:21;1.58;;;0.55;;
48268;SDS011;34088;52.232;5.196;2023-07-20T08:17:46;1.70;;;0.50;;
48268;SDS011;34088;52.232;5.196;2023-07-20T08:20:13;0.90;;;0.50;;
48268;SDS011;34088;52.232;5.196;2023-07-20T08:22:41;1.63;;;0.40;;
48268;SDS011;34088;52.232;5.196;2023-07-20T08:25:06;0.73;;;0.40;;
48268;SDS011;34088;52.232;5.196;2023-07-20T08:27:32;1.45;;;0.70;;
48268;SDS011;34088;52.232;5.196;2023-07-20T08:29:57;3.45;;;0.70;;
48268;SDS011;34088;52.232;5.196;2023-07-20T08:32:23;1.60;;;0.68;;
48268;SDS011;34088;52.232;5.196;2023-07-20T08:34:48;2.85;;;0.60;;
48268;SDS011;34088;52.232;5.196;2023-07-20T08:37:13;1.27;;;0.50;;
48268;SDS011;34088;52.232;5.196;2023-07-20T08:39:38;0.93;;;0.63;;
48268;SDS011;34088;52.232;5.196;2023-07-20T08:42:04;0.60;;;0.40;;
48268;SDS011;34088;52.232;5.196;2023-07-20T08:44:34;1.65;;;0.52;;
48268;SDS011;34088;52.232;5.196;2023-07-20T08:47:02;0.82;;;0.40;;
48268;SDS011;34088;52.232;5.196;2023-07-20T08:49:29;1.40;;;0.90;;
48268;SDS011;34088;52.232;5.196;2023-07-20T08:51:56;1.60;;;0.57;;
48268;SDS011;34088;52.232;5.196;2023-07-20T08:54:23;0.85;;;0.50;;
48268;SDS011;34088;52.232;5.196;2023-07-20T08:56:52;2.08;;;0.68;;
48268;SDS011;34088;52.232;5.196;2023-07-20T08:59:19;0.65;;;0.50;;
48268;SDS011;34088;52.232;5.196;2023-07-20T09:01:48;0.57;;;0.50;;
48268;SDS011;34088;52.232;5.196;2023-07-20T09:04:13;0.90;;;0.52;;
48268;SDS011;34088;52.232;5.196;2023-07-20T09:06:38;1.52;;;0.60;;
48268;SDS011;34088;52.232;5.196;2023-07-20T09:09:04;3.72;;;0.70;;
48268;SDS011;34088;52.232;5.196;2023-07-20T09:11:30;2.05;;;0.75;;
48268;SDS011;34088;52.232;5.196;2023-07-20T09:14:05;1.02;;;0.50;;
48268;SDS011;34088;52.232;5.196;2023-07-20T09:16:32;1.20;;;0.68;;
48268;SDS011;34088;52.232;5.196;2023-07-20T09:18:57;1.58;;;0.50;;
48268;SDS011;34088;52.232;5.196;2023-07-20T09:21:23;0.98;;;0.50;;
48268;SDS011;34088;52.232;5.196;2023-07-20T09:23:53;0.63;;;0.50;;
48268;SDS011;34088;52.232;5.196;2023-07-20T09:26:21;0.77;;;0.50;;
48268;SDS011;34088;52.232;5.196;2023-07-20T09:28:48;0.70;;;0.43;;
48268;SDS011;34088;52.232;5.196;2023-07-20T09:31:18;0.50;;;0.50;;
48268;SDS011;34088;52.232;5.196;2023-07-20T09:33:48;2.17;;;0.50;;
48268;SDS011;34088;52.232;5.196;2023-07-20T09:36:16;0.75;;;0.45;;
48268;SDS011;34088;52.232;5.196;2023-07-20T09:38:42;0.60;;;0.40;;
48268;SDS011;34088;52.232;5.196;2023-07-20T09:41:08;2.38;;;0.50;;
48268;SDS011;34088;52.232;5.196;2023-07-20T09:43:38;1.30;;;0.40;;
48268;SDS011;34088;52.232;5.196;2023-07-20T09:46:04;1.35;;;0.43;;
48268;SDS011;34088;52.232;5.196;2023-07-20T09:48:30;1.67;;;0.40;;
48268;SDS011;34088;52.232;5.196;2023-07-20T09:50:55;1.48;;;0.50;;
48268;SDS011;34088;52.232;5.196;2023-07-20T09:53:21;1.00;;;0.40;;
48268;SDS011;34088;52.232;5.196;2023-07-20T09:55:49;1.13;;;0.55;;
48268;SDS011;34088;52.232;5.196;2023-07-20T09:58:15;0.65;;;0.32;;
48268;SDS011;34088;52.232;5.196;2023-07-20T10:00:42;0.45;;;0.40;;
48268;SDS011;34088;52.232;5.196;2023-07-20T10:03:11;1.33;;;0.50;;
48268;SDS011;34088;52.232;5.196;2023-07-20T10:05:43;1.52;;;0.50;;
48268;SDS011;34088;52.232;5.196;2023-07-20T10:08:11;1.80;;;0.52;;
48268;SDS011;34088;52.232;5.196;2023-07-20T10:10:37;1.27;;;0.60;;
48268;SDS011;34088;52.232;5.196;2023-07-20T10:13:05;1.92;;;0.60;;
48268;SDS011;34088;52.232;5.196;2023-07-20T10:15:42;1.85;;;0.50;;
48268;SDS011;34088;52.232;5.196;2023-07-20T10:20:46;1.30;;;0.52;;
48268;SDS011;34088;52.232;5.196;2023-07-20T10:23:13;1.85;;;0.68;;
48268;SDS011;34088;52.232;5.196;2023-07-20T10:25:39;1.15;;;0.50;;
48268;SDS011;34088;52.232;5.196;2023-07-20T10:28:07;3.55;;;1.05;;
48268;SDS011;34088;52.232;5.196;2023-07-20T10:30:33;1.23;;;0.73;;
48268;SDS011;34088;52.232;5.196;2023-07-20T10:32:59;2.03;;;0.80;;
48268;SDS011;34088;52.232;5.196;2023-07-20T10:35:27;1.88;;;0.50;;
48268;SDS011;34088;52.232;5.196;2023-07-20T10:37:53;1.15;;;0.65;;
48268;SDS011;34088;52.232;5.196;2023-07-20T10:40:30;1.27;;;0.60;;
48268;SDS011;34088;52.232;5.196;2023-07-20T10:43:03;1.73;;;0.52;;
48268;SDS011;34088;52.232;5.196;2023-07-20T10:45:36;1.10;;;0.60;;
48268;SDS011;34088;52.232;5.196;2023-07-20T10:48:05;1.38;;;0.50;;
48268;SDS011;34088;52.232;5.196;2023-07-20T10:50:37;1.00;;;0.60;;
48268;SDS011;34088;52.232;5.196;2023-07-20T10:53:15;3.38;;;0.80;;
48268;SDS011;34088;52.232;5.196;2023-07-20T10:55:42;2.33;;;0.60;;
48268;SDS011;34088;52.232;5.196;2023-07-20T10:58:10;0.60;;;0.60;;
48268;SDS011;34088;52.232;5.196;2023-07-20T11:00:37;0.82;;;0.60;;
48268;SDS011;34088;52.232;5.196;2023-07-20T11:03:03;0.82;;;0.60;;
48268;SDS011;34088;52.232;5.196;2023-07-20T11:05:36;2.03;;;0.80;;
48268;SDS011;34088;52.232;5.196;2023-07-20T11:10:34;1.05;;;0.60;;
48268;SDS011;34088;52.232;5.196;2023-07-20T11:18:24;2.28;;;1.00;;
48268;SDS011;34088;52.232;5.196;2023-07-20T11:20:50;2.40;;;0.85;;
48268;SDS011;34088;52.232;5.196;2023-07-20T11:23:16;2.33;;;0.80;;
48268;SDS011;34088;52.232;5.196;2023-07-20T11:25:42;0.95;;;0.70;;
48268;SDS011;34088;52.232;5.196;2023-07-20T11:28:07;2.42;;;0.80;;
48268;SDS011;34088;52.232;5.196;2023-07-20T11:30:35;2.50;;;0.80;;
48268;SDS011;34088;52.232;5.196;2023-07-20T11:33:00;3.33;;;0.82;;
48268;SDS011;34088;52.232;5.196;2023-07-20T11:35:26;2.92;;;0.90;;
48268;SDS011;34088;52.232;5.196;2023-07-20T11:37:51;2.38;;;0.90;;
48268;SDS011;34088;52.232;5.196;2023-07-20T11:40:16;2.40;;;0.98;;
48268;SDS011;34088;52.232;5.196;2023-07-20T11:42:42;1.60;;;0.75;;
48268;SDS011;34088;52.232;5.196;2023-07-20T11:45:08;2.25;;;1.00;;
48268;SDS011;34088;52.232;5.196;2023-07-20T11:47:34;1.48;;;1.00;;
48268;SDS011;34088;52.232;5.196;2023-07-20T11:50:05;2.25;;;1.00;;
48268;SDS011;34088;52.232;5.196;2023-07-20T11:52:31;1.90;;;0.98;;
48268;SDS011;34088;52.232;5.196;2023-07-20T11:54:56;1.13;;;0.90;;
48268;SDS011;34088;52.232;5.196;2023-07-20T11:57:23;2.85;;;1.08;;
48268;SDS011;34088;52.232;5.196;2023-07-20T12:02:23;1.50;;;0.90;;
48268;SDS011;34088;52.232;5.196;2023-07-20T12:04:51;2.90;;;0.77;;
48268;SDS011;34088;52.232;5.196;2023-07-20T12:07:17;1.98;;;0.80;;
48268;SDS011;34088;52.232;5.196;2023-07-20T12:09:43;2.45;;;1.00;;
48268;SDS011;34088;52.232;5.196;2023-07-20T12:12:10;1.92;;;1.02;;
48268;SDS011;34088;52.232;5.196;2023-07-20T12:14:38;3.20;;;0.82;;
48268;SDS011;34088;52.232;5.196;2023-07-20T12:17:03;3.35;;;0.90;;
48268;SDS011;34088;52.232;5.196;2023-07-20T12:19:29;1.67;;;1.00;;
48268;SDS011;34088;52.232;5.196;2023-07-20T12:21:57;3.28;;;1.10;;
48268;SDS011;34088;52.232;5.196;2023-07-20T12:24:25;2.28;;;0.90;;
48268;SDS011;34088;52.232;5.196;2023-07-20T12:26:55;1.20;;;0.75;;
48268;SDS011;34088;52.232;5.196;2023-07-20T12:29:22;2.03;;;0.90;;
48268;SDS011;34088;52.232;5.196;2023-07-20T12:31:48;2.17;;;0.93;;
48268;SDS011;34088;52.232;5.196;2023-07-20T12:34:13;1.70;;;1.02;;
48268;SDS011;34088;52.232;5.196;2023-07-20T12:36:38;3.05;;;0.80;;
48268;SDS011;34088;52.232;5.196;2023-07-20T12:39:04;2.85;;;1.00;;
48268;SDS011;34088;52.232;5.196;2023-07-20T12:41:30;1.92;;;0.82;;
48268;SDS011;34088;52.232;5.196;2023-07-20T12:43:55;2.20;;;0.90;;
48268;SDS011;34088;52.232;5.196;2023-07-20T12:46:22;2.38;;;1.00;;
48268;SDS011;34088;52.232;5.196;2023-07-20T12:48:48;3.05;;;1.00;;
48268;SDS011;34088;52.232;5.196;2023-07-20T12:51:14;2.20;;;0.80;;
48268;SDS011;34088;52.232;5.196;2023-07-20T12:53:39;3.50;;;0.80;;
48268;SDS011;34088;52.232;5.196;2023-07-20T12:56:04;1.80;;;0.90;;
48268;SDS011;34088;52.232;5.196;2023-07-20T12:58:30;1.85;;;0.80;;
48268;SDS011;34088;52.232;5.196;2023-07-20T13:00:55;2.70;;;0.85;;
48268;SDS011;34088;52.232;5.196;2023-07-20T13:03:21;1.77;;;1.10;;
48268;SDS011;34088;52.232;5.196;2023-07-20T13:05:46;2.63;;;0.88;;
48268;SDS011;34088;52.232;5.196;2023-07-20T13:08:12;1.25;;;0.88;;
48268;SDS011;34088;52.232;5.196;2023-07-20T13:10:38;1.15;;;0.70;;
48268;SDS011;34088;52.232;5.196;2023-07-20T13:13:03;1.70;;;0.73;;
48268;SDS011;34088;52.232;5.196;2023-07-20T13:15:30;1.05;;;0.70;;
48268;SDS011;34088;52.232;5.196;2023-07-20T13:17:59;1.75;;;0.70;;
48268;SDS011;34088;52.232;5.196;2023-07-20T13:20:25;5.97;;;0.80;;
48268;SDS011;34088;52.232;5.196;2023-07-20T13:22:51;2.17;;;0.80;;
48268;SDS011;34088;52.232;5.196;2023-07-20T13:25:16;1.70;;;0.70;;
48268;SDS011;34088;52.232;5.196;2023-07-20T13:27:42;1.33;;;0.73;;
48268;SDS011;34088;52.232;5.196;2023-07-20T13:30:07;1.10;;;0.68;;
48268;SDS011;34088;52.232;5.196;2023-07-20T13:32:35;1.40;;;0.80;;
48268;SDS011;34088;52.232;5.196;2023-07-20T13:35:01;1.27;;;0.73;;
48268;SDS011;34088;52.232;5.196;2023-07-20T13:37:27;2.17;;;0.80;;
48268;SDS011;34088;52.232;5.196;2023-07-20T13:39:53;3.58;;;0.80;;
48268;SDS011;34088;52.232;5.196;2023-07-20T13:42:18;0.90;;;0.63;;
48268;SDS011;34088;52.232;5.196;2023-07-20T13:44:44;1.42;;;0.70;;
48268;SDS011;34088;52.232;5.196;2023-07-20T13:47:11;1.75;;;0.70;;
48268;SDS011;34088;52.232;5.196;2023-07-20T13:49:37;1.70;;;0.75;;
48268;SDS011;34088;52.232;5.196;2023-07-20T13:52:02;1.80;;;0.60;;
48268;SDS011;34088;52.232;5.196;2023-07-20T13:54:27;1.65;;;0.70;;
48268;SDS011;34088;52.232;5.196;2023-07-20T13:56:53;1.55;;;0.70;;
48268;SDS011;34088;52.232;5.196;2023-07-20T13:59:18;1.60;;;0.80;;
48268;SDS011;34088;52.232;5.196;2023-07-20T14:01:44;0.90;;;0.60;;
48268;SDS011;34088;52.232;5.196;2023-07-20T14:04:09;1.73;;;0.70;;
48268;SDS011;34088;52.232;5.196;2023-07-20T14:06:34;2.53;;;0.82;;
48268;SDS011;34088;52.232;5.196;2023-07-20T14:09:00;1.17;;;0.80;;
48268;SDS011;34088;52.232;5.196;2023-07-20T14:11:26;1.35;;;0.93;;
48268;SDS011;34088;52.232;5.196;2023-07-20T14:13:51;0.90;;;0.68;;
48268;SDS011;34088;52.232;5.196;2023-07-20T14:16:20;2.58;;;0.80;;
48268;SDS011;34088;52.232;5.196;2023-07-20T14:18:46;1.17;;;0.60;;
48268;SDS011;34088;52.232;5.196;2023-07-20T14:21:13;2.47;;;0.80;;
48268;SDS011;34088;52.232;5.196;2023-07-20T14:23:44;0.93;;;0.70;;
48268;SDS011;34088;52.232;5.196;2023-07-20T14:26:11;2.75;;;0.70;;
48268;SDS011;34088;52.232;5.196;2023-07-20T14:28:36;0.60;;;0.60;;
48268;SDS011;34088;52.232;5.196;2023-07-20T14:31:02;1.13;;;0.60;;
48268;SDS011;34088;52.232;5.196;2023-07-20T14:33:28;2.17;;;0.82;;
48268;SDS011;34088;52.232;5.196;2023-07-20T14:35:53;2.38;;;0.57;;
48268;SDS011;34088;52.232;5.196;2023-07-20T14:38:18;1.20;;;0.60;;
48268;SDS011;34088;52.232;5.196;2023-07-20T14:40:43;1.98;;;0.82;;
48268;SDS011;34088;52.232;5.196;2023-07-20T14:43:09;1.83;;;0.80;;
48268;SDS011;34088;52.232;5.196;2023-07-20T14:45:35;2.28;;;0.80;;
48268;SDS011;34088;52.232;5.196;2023-07-20T14:48:03;2.42;;;0.80;;
48268;SDS011;34088;52.232;5.196;2023-07-20T14:50:28;2.33;;;1.05;;
48268;SDS011;34088;52.232;5.196;2023-07-20T14:52:53;2.85;;;0.68;;
48268;SDS011;34088;52.232;5.196;2023-07-20T14:55:19;2.83;;;0.63;;
48268;SDS011;34088;52.232;5.196;2023-07-20T14:57:45;1.67;;;0.70;;
48268;SDS011;34088;52.232;5.196;2023-07-20T15:00:10;1.17;;;0.70;;
48268;SDS011;34088;52.232;5.196;2023-07-20T15:02:36;0.80;;;0.70;;
48268;SDS011;34088;52.232;5.196;2023-07-20T15:05:02;3.03;;;0.90;;
48268;SDS011;34088;52.232;5.196;2023-07-20T15:07:28;1.75;;;0.90;;
48268;SDS011;34088;52.232;5.196;2023-07-20T15:09:53;2.40;;;0.90;;
48268;SDS011;34088;52.232;5.196;2023-07-20T15:12:19;1.55;;;1.10;;
48268;SDS011;34088;52.232;5.196;2023-07-20T15:14:44;2.65;;;1.10;;
48268;SDS011;34088;52.232;5.196;2023-07-20T15:17:27;2.22;;;1.00;;
48268;SDS011;34088;52.232;5.196;2023-07-20T15:19:52;2.80;;;0.90;;
48268;SDS011;34088;52.232;5.196;2023-07-20T15:22:17;3.13;;;1.00;;
48268;SDS011;34088;52.232;5.196;2023-07-20T15:24:42;3.38;;;0.90;;
48268;SDS011;34088;52.232;5.196;2023-07-20T15:27:08;1.73;;;0.90;;
48268;SDS011;34088;52.232;5.196;2023-07-20T15:29:33;1.90;;;0.93;;
48268;SDS011;34088;52.232;5.196;2023-07-20T15:31:59;1.08;;;0.80;;
48268;SDS011;34088;52.232;5.196;2023-07-20T15:34:24;2.03;;;1.00;;
48268;SDS011;34088;52.232;5.196;2023-07-20T15:36:49;1.10;;;0.90;;
48268;SDS011;34088;52.232;5.196;2023-07-20T15:39:15;1.52;;;0.75;;
48268;SDS011;34088;52.232;5.196;2023-07-20T15:41:40;1.80;;;0.70;;
48268;SDS011;34088;52.232;5.196;2023-07-20T15:44:06;1.48;;;0.95;;
48268;SDS011;34088;52.232;5.196;2023-07-20T15:49:05;1.60;;;0.90;;
48268;SDS011;34088;52.232;5.196;2023-07-20T15:51:32;2.50;;;1.23;;
48268;SDS011;34088;52.232;5.196;2023-07-20T15:53:58;3.17;;;1.02;;
48268;SDS011;34088;52.232;5.196;2023-07-20T15:56:24;1.98;;;1.10;;
48268;SDS011;34088;52.232;5.196;2023-07-20T15:58:49;1.08;;;0.80;;
48268;SDS011;34088;52.232;5.196;2023-07-20T16:01:14;1.30;;;0.90;;
48268;SDS011;34088;52.232;5.196;2023-07-20T16:03:39;1.63;;;0.90;;
48268;SDS011;34088;52.232;5.196;2023-07-20T16:06:05;2.47;;;0.90;;
48268;SDS011;34088;52.232;5.196;2023-07-20T16:08:30;2.95;;;0.90;;
48268;SDS011;34088;52.232;5.196;2023-07-20T16:10:55;2.85;;;1.00;;
48268;SDS011;34088;52.232;5.196;2023-07-20T16:13:22;3.45;;;1.08;;
48268;SDS011;34088;52.232;5.196;2023-07-20T16:15:49;1.48;;;1.02;;
48268;SDS011;34088;52.232;5.196;2023-07-20T16:18:14;2.65;;;1.20;;
48268;SDS011;34088;52.232;5.196;2023-07-20T16:20:39;2.33;;;0.98;;
48268;SDS011;34088;52.232;5.196;2023-07-20T16:23:05;3.05;;;1.10;;
48268;SDS011;34088;52.232;5.196;2023-07-20T16:25:31;1.48;;;1.00;;
48268;SDS011;34088;52.232;5.196;2023-07-20T16:27:56;3.90;;;1.38;;
48268;SDS011;34088;52.232;5.196;2023-07-20T16:30:21;1.42;;;1.05;;
48268;SDS011;34088;52.232;5.196;2023-07-20T16:32:46;3.63;;;1.10;;
48268;SDS011;34088;52.232;5.196;2023-07-20T16:35:12;1.33;;;0.80;;
48268;SDS011;34088;52.232;5.196;2023-07-20T16:37:37;1.77;;;1.08;;
48268;SDS011;34088;52.232;5.196;2023-07-20T16:40:03;2.45;;;1.13;;
48268;SDS011;34088;52.232;5.196;2023-07-20T16:42:33;2.10;;;1.20;;
48268;SDS011;34088;52.232;5.196;2023-07-20T16:44:59;3.40;;;1.20;;
48268;SDS011;34088;52.232;5.196;2023-07-20T16:47:24;2.83;;;1.10;;
48268;SDS011;34088;52.232;5.196;2023-07-20T16:49:49;3.38;;;1.20;;
48268;SDS011;34088;52.232;5.196;2023-07-20T16:52:15;3.03;;;1.40;;
48268;SDS011;34088;52.232;5.196;2023-07-20T16:54:41;2.67;;;1.10;;
48268;SDS011;34088;52.232;5.196;2023-07-20T16:57:07;2.20;;;1.17;;
48268;SDS011;34088;52.232;5.196;2023-07-20T16:59:33;2.25;;;1.10;;
48268;SDS011;34088;52.232;5.196;2023-07-20T17:01:58;2.78;;;1.00;;
48268;SDS011;34088;52.232;5.196;2023-07-20T17:04:23;1.10;;;0.80;;
48268;SDS011;34088;52.232;5.196;2023-07-20T17:06:48;2.08;;;1.10;;
48268;SDS011;34088;52.232;5.196;2023-07-20T17:09:14;1.98;;;1.10;;
48268;SDS011;34088;52.232;5.196;2023-07-20T17:11:40;1.42;;;0.90;;
48268;SDS011;34088;52.232;5.196;2023-07-20T17:14:06;3.03;;;1.10;;
48268;SDS011;34088;52.232;5.196;2023-07-20T17:16:32;1.45;;;1.13;;
48268;SDS011;34088;52.232;5.196;2023-07-20T17:18:58;1.35;;;1.00;;
48268;SDS011;34088;52.232;5.196;2023-07-20T17:21:23;1.38;;;1.00;;
48268;SDS011;34088;52.232;5.196;2023-07-20T17:23:49;2.33;;;1.23;;
48268;SDS011;34088;52.232;5.196;2023-07-20T17:26:14;3.25;;;1.20;;
48268;SDS011;34088;52.232;5.196;2023-07-20T17:28:40;2.67;;;1.05;;
48268;SDS011;34088;52.232;5.196;2023-07-20T17:31:05;1.83;;;0.98;;
48268;SDS011;34088;52.232;5.196;2023-07-20T17:33:30;2.88;;;1.10;;
48268;SDS011;34088;52.232;5.196;2023-07-20T17:35:56;3.53;;;1.20;;
48268;SDS011;34088;52.232;5.196;2023-07-20T17:38:22;2.03;;;1.10;;
48268;SDS011;34088;52.232;5.196;2023-07-20T17:40:47;1.83;;;1.00;;
48268;SDS011;34088;52.232;5.196;2023-07-20T17:43:13;2.65;;;1.13;;
48268;SDS011;34088;52.232;5.196;2023-07-20T17:45:39;1.10;;;1.00;;
48268;SDS011;34088;52.232;5.196;2023-07-20T17:48:04;2.22;;;1.15;;